Time;durP1;ratioP1;P1;durP2;ratioP2;P2;SDS_P1;SDS_P2;PMS_P1;PMS_P2;Temp;Humidity;BMP_temperature;BMP_pressure;BME280_temperature;BME280_humidity;BME280_pressure;Samples;Min_cycle;Max_cycle;Signal;HPM_P1;HPM_P2
2022/05/06 07:54:08;;;;;;;3.55;1.60;;;23.90;44.70;;;;;;4778968;30;20111;-75
2022/05/06 07:56:54;;;;;;;2.20;1.25;;;23.90;44.40;;;;;;4776826;30;20056;-78
2022/05/06 07:59:40;;;;;;;1.45;1.20;;;23.90;44.50;;;;;;4773138;30;20074;-74
2022/05/06 08:05:32;;;;;;;1.90;1.40;;;23.90;41.80;;;;;;4770441;30;20039;-83
2022/05/06 08:08:19;;;;;;;4.03;1.10;;;24.00;42.00;;;;;;4770584;30;20114;-79
2022/05/06 08:11:04;;;;;;;3.55;1.20;;;23.90;44.10;;;;;;4765783;30;20070;-82
2022/05/06 08:13:49;;;;;;;1.20;1.00;;;23.80;44.10;;;;;;4772446;30;20062;-83
2022/05/06 08:16:34;;;;;;;1.77;1.20;;;23.80;44.10;;;;;;4772611;30;20047;-82
2022/05/06 08:19:20;;;;;;;3.03;1.40;;;24.00;44.90;;;;;;4771911;30;20061;-82
2022/05/06 08:22:05;;;;;;;2.78;1.48;;;23.90;44.10;;;;;;4785056;30;20047;-83
2022/05/06 08:24:51;;;;;;;3.58;1.40;;;23.80;44.60;;;;;;4772159;30;20057;-82
2022/05/06 08:27:41;;;;;;;1.55;1.45;;;23.80;45.00;;;;;;4772130;30;20056;-83
2022/05/06 08:30:25;;;;;;;3.55;1.38;;;23.80;45.30;;;;;;4772509;30;20078;-83
2022/05/06 08:33:14;;;;;;;2.65;1.25;;;23.80;44.80;;;;;;4784329;30;20051;-82
2022/05/06 08:36:00;;;;;;;2.00;1.35;;;23.80;45.50;;;;;;4772329;30;20047;-83
2022/05/06 08:38:45;;;;;;;1.60;1.38;;;23.80;45.30;;;;;;4784718;30;20042;-82
2022/05/06 08:41:30;;;;;;;2.83;1.50;;;23.80;45.40;;;;;;4767682;30;20051;-81
2022/05/06 08:53:32;;;;;;;3.50;1.10;;;23.80;45.30;;;;;;4772213;30;20074;-79
2022/05/06 08:56:17;;;;;;;2.83;0.90;;;23.80;45.90;;;;;;4769263;30;20080;-80
2022/05/06 08:59:02;;;;;;;1.63;1.25;;;23.80;46.20;;;;;;4772129;30;20838;-79
2022/05/06 09:01:47;;;;;;;1.45;1.17;;;23.80;46.60;;;;;;4770377;30;20128;-78
2022/05/06 09:04:38;;;;;;;2.35;1.80;;;23.80;47.20;;;;;;4771363;30;20055;-77
2022/05/06 09:07:25;;;;;;;1.50;1.40;;;23.70;46.70;;;;;;4765459;30;20055;-83
2022/05/06 09:10:13;;;;;;;2.83;1.52;;;23.80;47.10;;;;;;4759371;30;20104;-82
2022/05/06 09:13:00;;;;;;;1.60;1.20;;;23.80;47.90;;;;;;4768595;30;20151;-81
2022/05/06 09:18:22;;;;;;;1.88;0.95;;;23.80;47.80;;;;;;4754613;30;20047;-80
2022/05/06 09:20:50;;;;;;;1.95;1.20;;;23.80;45.70;;;;;;4754878;30;20104;-79
2022/05/06 09:23:25;;;;;;;1.73;0.90;;;23.70;47.00;;;;;;4754738;30;20048;-80
2022/05/06 09:25:55;;;;;;;1.55;0.60;;;23.80;46.90;;;;;;4762427;30;20059;-78
2022/05/06 09:28:23;;;;;;;0.93;0.77;;;23.80;49.60;;;;;;4772226;30;20176;-76
2022/05/06 09:31:00;;;;;;;3.38;1.00;;;23.80;49.60;;;;;;4772002;30;20048;-79
2022/05/06 09:33:28;;;;;;;4.47;0.80;;;23.90;53.30;;;;;;4767900;30;20057;-79
2022/05/06 09:35:56;;;;;;;1.30;1.08;;;24.00;55.50;;;;;;4754591;30;20055;-77
2022/05/06 09:38:29;;;;;;;0.45;0.45;;;24.20;55.70;;;;;;4769036;30;20467;-77
2022/05/06 09:40:57;;;;;;;1.02;0.52;;;24.10;54.80;;;;;;4786886;30;20103;-78
2022/05/06 09:43:26;;;;;;;0.68;0.68;;;24.30;54.00;;;;;;4774937;30;20048;-77
2022/05/06 09:45:52;;;;;;;1.15;1.05;;;24.10;54.20;;;;;;4775408;30;20048;-78
2022/05/06 09:48:20;;;;;;;2.97;1.30;;;24.20;54.00;;;;;;4787782;30;20090;-79
2022/05/06 09:50:47;;;;;;;1.20;0.95;;;24.30;47.00;;;;;;4775135;30;20043;-79
2022/05/06 09:53:18;;;;;;;1.48;1.25;;;24.20;40.20;;;;;;4786654;30;20063;-78
2022/05/06 09:55:46;;;;;;;3.10;1.50;;;24.00;42.60;;;;;;4772842;30;20036;-77
2022/05/06 09:58:14;;;;;;;3.42;1.10;;;24.00;41.80;;;;;;4773155;30;20185;-75
2022/05/06 10:00:41;;;;;;;2.15;1.30;;;24.10;40.60;;;;;;4775004;30;20040;-78
2022/05/06 10:03:09;;;;;;;2.90;1.20;;;24.40;43.70;;;;;;4774508;30;20048;-77
2022/05/06 10:05:36;;;;;;;12.85;1.52;;;24.70;42.30;;;;;;4787746;30;20048;-78
2022/05/06 10:08:12;;;;;;;2.10;1.20;;;24.80;39.40;;;;;;4775084;30;20048;-78
2022/05/06 10:10:44;;;;;;;1.70;1.23;;;24.70;39.10;;;;;;4772998;30;20048;-80
2022/05/06 10:13:19;;;;;;;4.07;1.25;;;24.50;39.10;;;;;;4773897;30;20105;-68
2022/05/06 10:15:53;;;;;;;2.78;1.50;;;24.60;37.20;;;;;;4770896;30;20055;-68
2022/05/06 10:18:34;;;;;;;1.35;1.23;;;24.40;38.90;;;;;;4773165;30;20082;-68
2022/05/06 10:21:08;;;;;;;1.52;1.33;;;24.30;38.20;;;;;;4773384;30;20044;-70
2022/05/06 10:23:54;;;;;;;3.08;1.40;;;24.30;37.10;;;;;;4772441;30;20044;-70
2022/05/06 10:26:36;;;;;;;1.58;1.10;;;24.30;36.10;;;;;;4773005;30;20060;-69
2022/05/06 10:34:57;;;;;;;1.05;0.85;;;24.10;37.40;;;;;;4774656;30;20059;-69
2022/05/06 10:37:34;;;;;;;4.32;0.80;;;23.90;37.00;;;;;;4771043;30;20044;-69
2022/05/06 10:40:23;;;;;;;3.70;1.08;;;24.00;44.50;;;;;;4785906;30;20051;-70
2022/05/06 10:42:50;;;;;;;4.05;1.27;;;24.10;45.60;;;;;;4786914;30;20040;-70
2022/05/06 10:45:33;;;;;;;1.23;1.10;;;24.30;46.00;;;;;;4771953;30;20067;-69
2022/05/06 10:48:00;;;;;;;3.13;1.13;;;24.30;44.90;;;;;;4771265;30;20055;-69
2022/05/06 10:50:37;;;;;;;1.15;0.77;;;24.30;46.80;;;;;;4774344;30;20070;-69
2022/05/06 10:53:04;;;;;;;2.33;0.98;;;24.20;47.00;;;;;;4772655;30;20048;-69
2022/05/06 10:55:30;;;;;;;1.60;1.25;;;24.30;46.80;;;;;;4774262;30;20565;-69
2022/05/06 10:58:04;;;;;;;3.08;1.40;;;24.40;46.00;;;;;;4772813;30;20051;-69
2022/05/06 11:00:33;;;;;;;2.50;0.95;;;24.30;46.50;;;;;;4772134;30;20052;-69
2022/05/06 11:03:01;;;;;;;1.45;1.15;;;24.30;47.10;;;;;;4771501;30;20234;-68
2022/05/06 11:05:29;;;;;;;1.65;1.10;;;24.30;45.30;;;;;;4772162;30;20051;-69
2022/05/06 11:07:58;;;;;;;1.85;1.15;;;24.30;47.00;;;;;;4771677;30;20055;-70
2022/05/06 11:10:27;;;;;;;2.35;1.33;;;24.30;47.10;;;;;;4781036;30;20762;-68
2022/05/06 11:12:58;;;;;;;2.63;1.20;;;24.30;47.10;;;;;;4785311;30;20056;-69
2022/05/06 11:15:32;;;;;;;2.75;0.88;;;24.30;47.00;;;;;;4772794;30;20076;-68
2022/05/06 11:18:04;;;;;;;2.25;1.08;;;24.40;47.20;;;;;;4784269;30;20111;-69
2022/05/06 11:20:32;;;;;;;;;;;24.30;47.30;;;;;;4782751;30;20047;-69
2022/05/06 11:23:08;;;;;;;2.45;1.10;;;24.40;47.20;;;;;;4785714;30;19929;-69
2022/05/06 11:25:40;;;;;;;1.67;1.00;;;24.30;47.30;;;;;;4776057;30;20146;-68
2022/05/06 11:28:14;;;;;;;2.53;1.97;;;24.30;47.30;;;;;;4774303;30;20074;-69
2022/05/06 11:30:44;;;;;;;1.13;0.98;;;24.30;47.50;;;;;;4773645;30;20296;-69
2022/05/06 11:33:20;;;;;;;1.00;1.00;;;24.30;47.60;;;;;;4772764;30;20056;-69
2022/05/06 11:35:47;;;;;;;2.17;1.02;;;24.30;47.60;;;;;;4773608;30;20048;-69
2022/05/06 11:38:14;;;;;;;1.80;0.93;;;24.40;47.60;;;;;;4772270;30;20048;-69
2022/05/06 11:40:41;;;;;;;3.22;1.08;;;24.30;47.60;;;;;;4773210;30;20044;-69
2022/05/06 11:43:21;;;;;;;3.42;1.38;;;24.30;47.70;;;;;;4772517;30;20040;-69
2022/05/06 11:48:44;;;;;;;1.13;1.02;;;24.30;47.50;;;;;;4770937;30;20044;-69
2022/05/06 11:51:23;;;;;;;1.85;1.00;;;24.40;47.70;;;;;;4772713;30;20056;-69
2022/05/06 11:53:50;;;;;;;1.95;1.02;;;24.20;47.60;;;;;;4772612;30;20055;-69
2022/05/06 11:56:25;;;;;;;2.72;1.15;;;24.20;47.80;;;;;;4772750;30;20044;-69
2022/05/06 11:58:55;;;;;;;2.58;0.68;;;24.20;47.50;;;;;;4773318;30;20112;-69
2022/05/06 12:01:36;;;;;;;1.40;0.82;;;24.30;47.80;;;;;;4772048;30;20047;-69
2022/05/06 12:04:04;;;;;;;1.33;1.00;;;24.30;47.50;;;;;;4769486;30;20052;-70
2022/05/06 12:06:35;;;;;;;2.35;1.20;;;24.30;47.30;;;;;;4770737;30;20148;-69
2022/05/06 12:09:12;;;;;;;3.33;1.42;;;24.30;48.10;;;;;;4769109;30;20055;-69
2022/05/06 12:11:39;;;;;;;1.75;1.10;;;24.10;46.70;;;;;;4772363;30;20055;-69
2022/05/06 12:14:10;;;;;;;1.20;1.10;;;24.10;47.50;;;;;;4772892;30;21483;-68
2022/05/06 12:16:36;;;;;;;3.47;1.10;;;24.10;45.90;;;;;;4785424;30;20055;-69
2022/05/06 12:19:03;;;;;;;4.22;1.23;;;24.10;47.60;;;;;;4769009;30;20072;-71
2022/05/06 12:21:32;;;;;;;7.82;1.10;;;24.10;48.50;;;;;;4772008;30;20052;-70
2022/05/06 12:24:00;;;;;;;1.65;0.90;;;24.10;48.20;;;;;;4771880;30;20048;-69
2022/05/06 12:26:30;;;;;;;1.85;1.27;;;24.10;48.80;;;;;;4785283;30;20082;-69
2022/05/06 12:28:58;;;;;;;2.35;1.30;;;24.00;48.20;;;;;;4770148;30;20072;-69
2022/05/06 12:31:32;;;;;;;1.95;1.45;;;24.10;46.60;;;;;;4772233;30;20059;-69
2022/05/06 12:34:03;;;;;;;1.67;1.40;;;24.00;46.40;;;;;;4774820;30;20056;-71
2022/05/06 13:00:33;;;;;;;1.83;1.30;;;24.00;49.50;;;;;;4602430;30;20058;-69
